Goshen, Vermont
Current Conditions -  °F | °C
As of 4:35 AM on Thursday 27 Nov 2014 (Local Time) from K6B0 Reporting Station
Overcast Overcast  
Wind Chill: 21°   Ceiling: 1600
Heat Index: 28°   Visibility: 7mi
Dew Point: 28°   Wind: 7mph
Humidity: 100%   Direction: 360°N
Pressure: 29.9"   Gusts: NA
Location:  43.8209°N, 73.0875°W
Report Text: K6B0 270935Z AUTO 36006KT 7SM OVC016 M02/M02 A2990 RMK AO2 T10201020
Loading
Personal Weather Stations






























Interactive Weather Map New forecast layout! Learn more

10-Day Weather Forecast

Advertisements
Track Severe Weather on mobile